EGNT Airport Information

Runway Information
Runway 07 Length 7642 ft width 151 ft
Elevation 263 ft Threshold 394 ft Heading 65
Runway 25 Length 7642 ft Width 151 ft
Elevation 239 ft Threshold 446 ft Heading 245
Airport Frequencies
Type APP Name APP Frequency 124.375 MHZ
Type ATIS Name ATIS Frequency 118.375 MHZ
Type GND Name GND Frequency 121.725 MHZ
Type ILS Name Runway 07/ Frequency 111.5 MHZ
Type TWR Name TWR Frequency 119.7 MHZ
Airport Navaids
Type VOR-DME Name Newcastle Frequency 114250 KHZ
Airport Weather Information & NOTAM
ADDS - METARS form results

(1857 UTC 23 May 2019)
Data provider http://aviationweather.gov/metar/data/
 
METAR text: EGNT 231850Z 26011KT CAVOK 15/05 Q1012
Conditions at: EGNT (NEWCASTLE , GB) observed 1850 UTC 23 May 2019
Temperature: 15.0°C (59°F)
Dewpoint: 5.0°C (41°F) [RH = 51%]
Pressure (altimeter): 29.88 inches Hg (1012.0 mb)
Winds: from the W (260 degrees) at 13 MPH (11 knots; 5.7 m/s)
Visibility: 6 or more miles (10+ km)
Ceiling: ceiling and visibility are OK
Clouds: unknown
Weather: no significant weather observed at this time

METAR text: EGNT 231820Z 25014KT CAVOK 16/05 Q1012
Conditions at: EGNT (NEWCASTLE , GB) observed 1820 UTC 23 May 2019
Temperature: 16.0°C (61°F)
Dewpoint: 5.0°C (41°F) [RH = 48%]
Pressure (altimeter): 29.88 inches Hg (1012.0 mb)
Winds: from the WSW (250 degrees) at 16 MPH (14 knots; 7.2 m/s)
Visibility: 6 or more miles (10+ km)
Ceiling: ceiling and visibility are OK
Clouds: unknown
Weather: no significant weather observed at this time

Forecast for: COR
Text: TAF COR EGNT 231659Z 2318/2418 26012KT 9999 FEW040
Forecast period: 1800 UTC 23 May 2019 to 1800 UTC 24 May 2019
Forecast type: FROM: standard forecast or significant change
Winds: from the W (260 degrees) at 14 MPH (12 knots; 6.2 m/s)
Visibility: 6 or more miles 10+ km)
Ceiling: at least 12,000 feet AGL
Clouds: few clouds at 4000 feet AGL
Weather: no significant weather forecast for this period
Text: PROB40
Forecast period: 1800 to 1900 UTC 23 May 2019
Forecast type: TEMPORARY: The following changes expected for less than half the time period
Winds: from the W (260 degrees) at 23 MPH (20 knots; 10.3 m/s)
gusting to 34 MPH (30 knots; 15.4 m/s)
Visibility: missing
Ceiling: unknown
Clouds: missing
Weather: no significant weather forecast for this period